createdAt,value
2023-05-08T00:00:13.251Z,56.21
2023-05-08T00:03:01.433Z,57.92
2023-05-08T00:05:29.457Z,59.90
2023-05-08T00:08:01.683Z,64.78
2023-05-08T00:10:30.125Z,66.11
2023-05-08T00:12:57.993Z,60.72
2023-05-08T00:15:25.904Z,56.87
2023-05-08T00:17:53.903Z,56.07
2023-05-08T00:20:21.949Z,57.24
2023-05-08T00:22:49.863Z,58.36
2023-05-08T00:25:17.888Z,63.77
2023-05-08T00:27:45.708Z,63.82
2023-05-08T00:30:14.591Z,60.35
2023-05-08T00:32:42.745Z,56.63
2023-05-08T00:35:10.899Z,55.66
2023-05-08T00:37:40.905Z,57.23
2023-05-08T00:40:10.586Z,59.41
2023-05-08T00:42:38.711Z,63.94
2023-05-08T00:45:07.511Z,64.00
2023-05-08T00:47:35.830Z,60.16
2023-05-08T00:50:05.570Z,55.38
2023-05-08T00:52:34.029Z,55.44
2023-05-08T00:55:03.200Z,57.88
2023-05-08T00:57:35.767Z,60.11
2023-05-08T01:00:05.684Z,64.15
2023-05-08T01:02:34.678Z,64.11
2023-05-08T01:05:03.748Z,60.50
2023-05-08T01:07:32.888Z,56.14
2023-05-08T01:10:00.973Z,55.82
2023-05-08T01:12:47.457Z,58.64
2023-05-08T01:15:21.611Z,60.53
2023-05-08T01:18:04.905Z,64.93
2023-05-08T01:20:38.780Z,66.04
2023-05-08T01:23:22.061Z,62.77
2023-05-08T01:26:22.690Z,57.12
2023-05-08T01:29:25.670Z,55.90
2023-05-08T01:32:12.474Z,58.29
2023-05-08T01:34:52.105Z,59.21
2023-05-08T01:37:43.412Z,65.47
2023-05-08T01:40:37.396Z,64.30
2023-05-08T01:43:19.153Z,59.53
2023-05-08T01:45:50.358Z,55.95
2023-05-08T01:48:25.847Z,57.95
2023-05-08T01:51:01.211Z,59.09
2023-05-08T01:53:33.211Z,64.99
2023-05-08T01:56:07.801Z,64.32
2023-05-08T01:58:38.562Z,59.28
2023-05-08T02:01:08.726Z,56.19
2023-05-08T02:03:39.870Z,58.09
2023-05-08T02:06:09.546Z,61.64
2023-05-08T02:08:38.051Z,65.48
2023-05-08T02:11:07.105Z,64.81
2023-05-08T02:13:37.183Z,60.73
2023-05-08T02:16:09.025Z,56.15
2023-05-08T02:18:40.054Z,55.64
2023-05-08T02:21:10.617Z,58.70
2023-05-08T02:23:38.608Z,60.74
2023-05-08T02:26:07.245Z,64.95
2023-05-08T02:28:36.794Z,64.03
2023-05-08T02:31:05.960Z,58.28
2023-05-08T02:33:37.040Z,57.25
2023-05-08T02:36:06.213Z,60.26
2023-05-08T02:38:37.795Z,64.60
2023-05-08T02:41:06.671Z,64.30
2023-05-08T02:43:35.564Z,60.06
2023-05-08T02:46:03.673Z,55.13
2023-05-08T02:48:41.102Z,55.43
2023-05-08T02:51:25.520Z,58.23
2023-05-08T02:54:09.329Z,59.97
2023-05-08T02:56:55.877Z,65.67
2023-05-08T02:59:45.587Z,65.15
2023-05-08T03:02:28.778Z,59.70
2023-05-08T03:05:04.479Z,55.58
2023-05-08T03:07:38.502Z,56.44
2023-05-08T03:10:13.529Z,58.95
2023-05-08T03:12:46.524Z,60.16
2023-05-08T03:15:35.241Z,65.69
2023-05-08T03:18:09.088Z,66.48
2023-05-08T03:20:40.252Z,62.30
2023-05-08T03:23:11.631Z,57.75
2023-05-08T03:25:43.715Z,56.10
2023-05-08T03:28:14.786Z,58.43
2023-05-08T03:30:44.163Z,59.78
2023-05-08T03:33:16.416Z,65.01
2023-05-08T03:35:46.647Z,64.95
2023-05-08T03:38:15.057Z,61.39
2023-05-08T03:40:43.250Z,57.35
2023-05-08T03:43:12.605Z,56.50
2023-05-08T03:45:41.690Z,58.49
2023-05-08T03:48:11.128Z,61.01
2023-05-08T03:50:39.070Z,64.26
2023-05-08T03:53:10.370Z,65.51
2023-05-08T03:55:39.497Z,59.75
2023-05-08T03:58:38.742Z,54.46
2023-05-08T04:01:23.659Z,57.08
2023-05-08T04:03:55.093Z,59.72
2023-05-08T04:06:48.824Z,63.91
2023-05-08T04:09:27.272Z,62.84
2023-05-08T04:12:03.997Z,57.54
2023-05-08T04:14:43.136Z,56.58
2023-05-08T04:17:15.936Z,58.73
2023-05-08T04:19:47.443Z,60.13
2023-05-08T04:22:18.157Z,64.36
2023-05-08T04:24:48.287Z,62.63
2023-05-08T04:27:17.821Z,58.04
2023-05-08T04:29:45.801Z,56.67
2023-05-08T04:32:14.655Z,59.01
2023-05-08T04:34:42.723Z,61.46
2023-05-08T04:37:29.340Z,65.45
2023-05-08T04:39:59.964Z,64.88
2023-05-08T04:42:28.386Z,59.73
2023-05-08T04:44:58.016Z,54.58
2023-05-08T04:47:26.017Z,55.32
2023-05-08T04:49:53.955Z,57.58
2023-05-08T04:52:21.972Z,60.17
2023-05-08T04:54:49.917Z,63.84
2023-05-08T04:57:17.906Z,63.79
2023-05-08T04:59:46.045Z,59.29
2023-05-08T05:02:15.455Z,55.90
2023-05-08T05:04:43.804Z,56.88
2023-05-08T05:07:12.100Z,59.33
2023-05-08T05:09:40.110Z,62.07
2023-05-08T05:12:09.036Z,65.15
2023-05-08T05:14:37.066Z,62.49
2023-05-08T05:17:05.225Z,56.78
2023-05-08T05:19:33.183Z,55.59
2023-05-08T05:22:01.346Z,57.46
2023-05-08T05:24:30.524Z,58.87
2023-05-08T05:26:58.654Z,63.15
2023-05-08T05:29:26.628Z,61.76
2023-05-08T05:31:54.764Z,57.37
2023-05-08T05:34:23.154Z,56.70
2023-05-08T05:36:51.145Z,57.65
2023-05-08T05:39:19.136Z,59.34
2023-05-08T05:41:47.179Z,60.66
2023-05-08T05:44:15.261Z,64.63
2023-05-08T05:46:44.620Z,63.97
2023-05-08T05:49:12.941Z,60.13
2023-05-08T05:51:41.140Z,54.20
2023-05-08T05:54:09.169Z,55.31
2023-05-08T05:56:37.549Z,56.31
2023-05-08T05:59:05.992Z,59.21
2023-05-08T06:01:34.093Z,60.17
2023-05-08T06:04:02.194Z,61.71
2023-05-08T06:06:30.203Z,65.93
2023-05-08T06:08:58.143Z,65.30
2023-05-08T06:11:26.262Z,60.35
2023-05-08T06:13:54.509Z,55.50
2023-05-08T06:16:23.319Z,54.40
2023-05-08T06:18:51.590Z,55.69
2023-05-08T06:21:19.525Z,56.55
2023-05-08T06:23:47.507Z,58.37
2023-05-08T06:26:15.509Z,59.27
2023-05-08T06:28:43.661Z,60.48
2023-05-08T06:31:11.803Z,60.72
2023-05-08T06:33:40.089Z,63.38
2023-05-08T06:36:08.439Z,65.38
2023-05-08T06:38:36.406Z,57.90
2023-05-08T06:41:04.280Z,53.80
2023-05-08T06:43:32.322Z,55.01
2023-05-08T06:46:00.292Z,56.36
2023-05-08T06:48:29.404Z,57.06
2023-05-08T06:50:58.811Z,60.07
2023-05-08T06:53:27.109Z,63.06
2023-05-08T06:55:55.305Z,60.23
2023-05-08T06:58:23.568Z,54.77
2023-05-08T07:00:51.955Z,55.88
2023-05-08T07:03:20.112Z,56.57
2023-05-08T07:05:48.244Z,57.65
2023-05-08T07:08:16.265Z,59.04
2023-05-08T07:10:44.338Z,59.86
2023-05-08T07:13:12.438Z,61.18
2023-05-08T07:15:40.834Z,64.14
2023-05-08T07:18:09.586Z,63.89
2023-05-08T07:20:37.873Z,56.45
2023-05-08T07:23:07.241Z,53.83
2023-05-08T07:25:35.327Z,54.13
2023-05-08T07:28:03.822Z,53.98
2023-05-08T07:30:31.895Z,55.96
2023-05-08T07:33:00.124Z,57.50
2023-05-08T07:35:29.736Z,57.21
2023-05-08T07:37:57.903Z,57.52
2023-05-08T07:40:26.077Z,59.07
2023-05-08T07:42:54.101Z,58.52
2023-05-08T07:45:22.656Z,59.35
2023-05-08T07:47:52.967Z,59.77
2023-05-08T07:50:22.238Z,59.65
2023-05-08T07:52:50.603Z,59.58
2023-05-08T07:55:19.612Z,59.73
2023-05-08T07:57:47.516Z,59.79
2023-05-08T08:00:17.230Z,60.40
2023-05-08T08:02:46.064Z,59.92
2023-05-08T08:05:14.514Z,60.86
2023-05-08T08:07:42.911Z,60.66
2023-05-08T08:10:11.201Z,59.97
2023-05-08T08:12:39.484Z,59.99
2023-05-08T08:15:08.093Z,60.47
2023-05-08T08:17:36.723Z,59.74
2023-05-08T08:20:05.174Z,59.19
2023-05-08T08:22:33.160Z,59.70
2023-05-08T08:25:01.231Z,59.80
2023-05-08T08:27:29.419Z,59.33
2023-05-08T08:30:08.628Z,59.98
2023-05-08T08:32:45.057Z,59.46
2023-05-08T08:35:13.648Z,59.91
2023-05-08T08:37:42.127Z,59.30
2023-05-08T08:40:10.451Z,59.81
2023-05-08T08:42:38.601Z,59.00
2023-05-08T08:45:07.178Z,59.02
2023-05-08T08:47:41.485Z,59.09
2023-05-08T08:50:12.832Z,59.22
2023-05-08T08:52:52.131Z,58.61
2023-05-08T08:55:23.559Z,58.57
2023-05-08T08:58:00.784Z,57.70
2023-05-08T09:00:34.152Z,57.50
2023-05-08T09:03:02.363Z,57.72
2023-05-08T09:05:31.786Z,58.07
2023-05-08T09:08:00.112Z,57.33
2023-05-08T09:10:28.458Z,57.92
2023-05-08T09:12:56.650Z,57.25
2023-05-08T09:15:25.984Z,56.68
2023-05-08T09:17:54.309Z,56.22
2023-05-08T09:20:23.325Z,56.19
2023-05-08T09:22:53.075Z,57.20
2023-05-08T09:25:21.626Z,56.90
2023-05-08T09:27:49.642Z,56.47
2023-05-08T09:30:17.971Z,56.83
2023-05-08T09:32:46.139Z,56.79
2023-05-08T09:35:14.420Z,56.81
2023-05-08T09:37:43.955Z,57.07
2023-05-08T09:40:16.315Z,56.74
2023-05-08T09:42:45.572Z,57.04
2023-05-08T09:45:31.939Z,56.83
2023-05-08T09:48:01.190Z,56.98
2023-05-08T09:50:29.746Z,56.43
2023-05-08T09:52:57.866Z,54.78
2023-05-08T09:55:25.885Z,54.84
2023-05-08T09:57:59.787Z,54.65
2023-05-08T10:00:30.643Z,54.19
2023-05-08T10:03:01.288Z,54.66
2023-05-08T10:05:35.985Z,54.57
2023-05-08T10:08:26.666Z,53.95
2023-05-08T10:10:54.637Z,53.56
2023-05-08T10:13:22.715Z,54.43
2023-05-08T10:15:55.159Z,54.30
2023-05-08T10:18:30.232Z,54.50
2023-05-08T10:21:03.184Z,54.32
2023-05-08T10:23:34.273Z,53.94
2023-05-08T10:26:11.720Z,54.12
2023-05-08T10:28:55.036Z,53.41
2023-05-08T10:31:26.213Z,53.41
2023-05-08T10:33:56.736Z,52.74
2023-05-08T10:36:27.411Z,53.51
2023-05-08T10:38:59.130Z,53.43
2023-05-08T10:41:28.044Z,53.18
2023-05-08T10:43:56.981Z,53.52
2023-05-08T10:46:54.813Z,52.54
2023-05-08T10:49:41.539Z,52.14
2023-05-08T10:52:16.934Z,52.34
2023-05-08T10:54:54.489Z,52.22
2023-05-08T10:57:22.434Z,52.84
2023-05-08T10:59:50.603Z,52.49
2023-05-08T11:02:28.749Z,51.84
2023-05-08T11:05:17.984Z,51.84
2023-05-08T11:07:55.730Z,51.70
2023-05-08T11:10:31.046Z,52.11
2023-05-08T11:13:00.923Z,52.66
2023-05-08T11:15:40.165Z,52.97
2023-05-08T11:18:11.741Z,52.89
2023-05-08T11:20:58.327Z,52.94
2023-05-08T11:23:38.577Z,52.16
2023-05-08T11:26:13.777Z,51.81
2023-05-08T11:28:57.069Z,50.21
2023-05-08T11:31:51.652Z,49.95
2023-05-08T11:34:46.215Z,49.49
2023-05-08T11:37:22.615Z,49.85
2023-05-08T11:39:50.950Z,50.31
2023-05-08T11:42:27.807Z,50.18
2023-05-08T11:45:10.842Z,49.87
2023-05-08T11:47:41.568Z,50.48
2023-05-08T11:50:11.349Z,50.19
2023-05-08T11:52:41.692Z,49.24
2023-05-08T11:55:11.996Z,49.23
2023-05-08T11:57:39.900Z,48.18
2023-05-08T12:00:10.091Z,48.07
2023-05-08T12:02:46.031Z,48.81
2023-05-08T12:05:14.165Z,49.71
2023-05-08T12:07:46.742Z,49.96
2023-05-08T12:10:16.677Z,50.54
2023-05-08T12:12:45.542Z,51.08
2023-05-08T12:15:15.472Z,51.35
2023-05-08T12:17:43.681Z,52.01
2023-05-08T12:20:17.424Z,51.70
2023-05-08T12:22:53.335Z,51.30
2023-05-08T12:25:21.645Z,51.63
2023-05-08T12:27:49.708Z,51.81
2023-05-08T12:30:18.492Z,51.96
2023-05-08T12:32:47.139Z,51.00
2023-05-08T12:35:16.505Z,50.71
2023-05-08T12:37:45.439Z,50.69
2023-05-08T12:40:29.273Z,50.77
2023-05-08T12:42:57.701Z,50.55
2023-05-08T12:45:30.964Z,49.75
2023-05-08T12:48:04.219Z,50.25
2023-05-08T12:50:43.193Z,50.36
2023-05-08T12:53:13.647Z,50.82
2023-05-08T12:55:52.964Z,51.39
2023-05-08T12:58:24.936Z,51.60
2023-05-08T13:00:54.953Z,52.12
2023-05-08T13:03:28.964Z,52.11
2023-05-08T13:05:58.697Z,52.84
2023-05-08T13:08:44.853Z,52.30
2023-05-08T13:11:12.796Z,52.15
2023-05-08T13:13:40.763Z,51.60
2023-05-08T13:16:08.894Z,50.97
2023-05-08T13:18:37.389Z,50.96
2023-05-08T13:21:05.952Z,51.53
2023-05-08T13:23:33.943Z,50.90
2023-05-08T13:26:01.856Z,50.84
2023-05-08T13:28:29.845Z,51.01
2023-05-08T13:30:57.867Z,51.01
2023-05-08T13:33:26.459Z,50.69
2023-05-08T13:35:55.361Z,50.41
2023-05-08T13:38:23.318Z,49.26
2023-05-08T13:40:52.327Z,49.37
2023-05-08T13:43:20.317Z,49.69
2023-05-08T13:45:48.253Z,50.08
2023-05-08T13:48:16.302Z,50.67
2023-05-08T13:50:44.241Z,50.75
2023-05-08T13:53:12.156Z,51.54
2023-05-08T13:55:40.384Z,51.77
2023-05-08T13:58:11.331Z,52.04
2023-05-08T14:00:39.230Z,51.64
2023-05-08T14:03:07.218Z,51.64
2023-05-08T14:05:35.432Z,51.72
2023-05-08T14:08:03.511Z,51.61
2023-05-08T14:10:31.414Z,51.50
2023-05-08T14:12:59.493Z,51.59
2023-05-08T14:15:36.519Z,51.44
2023-05-08T14:18:05.967Z,51.81
2023-05-08T14:20:34.058Z,51.48
2023-05-08T14:23:02.049Z,51.09
2023-05-08T14:25:30.762Z,50.70
2023-05-08T14:27:58.672Z,50.21
2023-05-08T14:30:26.795Z,50.44
2023-05-08T14:32:54.754Z,50.34
2023-05-08T14:35:22.817Z,50.96
2023-05-08T14:37:50.729Z,51.04
2023-05-08T14:40:18.847Z,51.10
2023-05-08T14:42:46.777Z,51.13
2023-05-08T14:45:14.983Z,51.50
2023-05-08T14:47:43.340Z,52.21
2023-05-08T14:50:11.533Z,52.44
2023-05-08T14:52:39.468Z,51.68
2023-05-08T14:55:08.311Z,51.64
2023-05-08T14:57:36.497Z,52.13
2023-05-08T15:00:06.885Z,51.73
2023-05-08T15:02:35.043Z,50.32
2023-05-08T15:05:06.144Z,49.18
2023-05-08T15:07:37.034Z,47.73
2023-05-08T15:10:06.524Z,45.50
2023-05-08T15:12:34.862Z,44.65
2023-05-08T15:15:04.493Z,44.62
2023-05-08T15:17:35.755Z,44.53
2023-05-08T15:20:05.025Z,44.66
2023-05-08T15:22:32.957Z,44.88
2023-05-08T15:25:02.587Z,45.08
2023-05-08T15:27:30.664Z,45.67
2023-05-08T15:29:58.884Z,45.77
2023-05-08T15:32:30.301Z,46.06
2023-05-08T15:34:58.185Z,46.54
2023-05-08T15:37:26.168Z,46.74
2023-05-08T15:39:54.302Z,47.96
2023-05-08T15:42:22.193Z,48.59
2023-05-08T15:47:23.007Z,48.80
2023-05-08T15:49:51.295Z,47.87
2023-05-08T15:52:19.968Z,46.90
2023-05-08T15:54:48.027Z,46.60
2023-05-08T15:57:16.226Z,46.46
2023-05-08T15:59:44.209Z,46.31
2023-05-08T16:02:12.246Z,45.88
2023-05-08T16:04:40.352Z,45.45
2023-05-08T16:07:08.438Z,45.51
2023-05-08T16:09:36.461Z,44.32
2023-05-08T16:12:04.576Z,43.94
2023-05-08T16:14:32.580Z,43.39
2023-05-08T16:17:00.505Z,43.16
2023-05-08T16:19:28.954Z,42.73
2023-05-08T16:21:56.938Z,42.96
2023-05-08T16:24:24.909Z,42.37
2023-05-08T16:26:52.837Z,41.92
2023-05-08T16:29:20.744Z,41.30
2023-05-08T16:31:48.778Z,40.64
2023-05-08T16:34:17.041Z,40.90
2023-05-08T16:36:45.891Z,41.84
2023-05-08T16:39:13.846Z,41.90
2023-05-08T16:41:41.726Z,41.57
2023-05-08T16:44:09.678Z,41.34
2023-05-08T16:46:37.607Z,41.23
2023-05-08T16:49:05.537Z,41.80
2023-05-08T16:51:33.403Z,41.34
2023-05-08T16:54:01.877Z,40.32
2023-05-08T16:56:30.895Z,40.07
2023-05-08T16:58:58.859Z,40.57
2023-05-08T17:01:32.875Z,41.05
2023-05-08T17:04:01.063Z,42.46
2023-05-08T17:06:28.991Z,43.21
2023-05-08T17:08:56.977Z,43.83
2023-05-08T17:11:24.857Z,44.49
2023-05-08T17:13:52.787Z,45.84
2023-05-08T17:16:20.803Z,46.51
2023-05-08T17:18:48.793Z,47.22
2023-05-08T17:21:16.720Z,47.80
2023-05-08T17:23:45.807Z,48.62
2023-05-08T17:26:13.821Z,48.95
2023-05-08T17:28:41.749Z,49.75
2023-05-08T17:31:09.753Z,49.67
2023-05-08T17:33:37.875Z,48.07
2023-05-08T17:36:06.100Z,46.79
2023-05-08T17:38:35.543Z,45.42
2023-05-08T17:41:03.557Z,44.59
2023-05-08T17:43:33.811Z,43.74
2023-05-08T17:46:01.971Z,42.85
2023-05-08T17:48:30.023Z,42.75
2023-05-08T17:50:59.488Z,43.23
2023-05-08T17:53:27.349Z,43.94
2023-05-08T17:55:56.038Z,45.01
2023-05-08T17:58:24.978Z,46.18
2023-05-08T18:00:54.332Z,47.23
2023-05-08T18:03:22.501Z,48.64
2023-05-08T18:05:50.606Z,49.54
2023-05-08T18:08:18.544Z,50.07
2023-05-08T18:10:46.508Z,50.92
2023-05-08T18:13:14.653Z,51.77
2023-05-08T18:15:42.905Z,52.58
2023-05-08T18:18:11.126Z,53.23
2023-05-08T18:20:39.041Z,53.71
2023-05-08T18:23:07.080Z,54.21
2023-05-08T18:25:38.120Z,54.60
2023-05-08T18:28:06.194Z,55.34
2023-05-08T18:30:36.572Z,55.94
2023-05-08T18:33:04.606Z,56.49
2023-05-08T18:35:32.596Z,57.23
2023-05-08T18:38:00.568Z,57.92
2023-05-08T18:40:28.529Z,58.68
2023-05-08T18:42:56.464Z,59.26
2023-05-08T18:45:24.383Z,59.69
2023-05-08T18:47:54.191Z,60.79
2023-05-08T18:50:22.305Z,60.86
2023-05-08T18:52:51.599Z,61.14
2023-05-08T18:55:19.560Z,61.74
2023-05-08T18:57:47.440Z,65.53
2023-05-08T19:00:16.430Z,70.47
2023-05-08T19:02:44.379Z,66.97
2023-05-08T19:05:12.402Z,60.35
2023-05-08T19:07:40.346Z,56.34
2023-05-08T19:10:09.004Z,56.09
2023-05-08T19:12:36.905Z,57.59
2023-05-08T19:15:05.407Z,57.91
2023-05-08T19:17:35.008Z,58.86
2023-05-08T19:20:04.151Z,59.79
2023-05-08T19:22:34.482Z,60.91
2023-05-08T19:25:04.139Z,65.94
2023-05-08T19:27:32.440Z,68.30
2023-05-08T19:30:00.406Z,63.87
2023-05-08T19:32:28.830Z,59.23
2023-05-08T19:34:57.624Z,56.35
2023-05-08T19:37:25.589Z,57.08
2023-05-08T19:39:55.630Z,57.80
2023-05-08T19:42:23.638Z,58.70
2023-05-08T19:44:51.851Z,59.55
2023-05-08T19:47:19.813Z,60.46
2023-05-08T19:49:47.698Z,65.40
2023-05-08T19:52:15.736Z,68.41
2023-05-08T19:54:48.412Z,64.33
2023-05-08T19:57:16.528Z,57.19
2023-05-08T19:59:44.398Z,55.06
2023-05-08T20:02:12.305Z,56.07
2023-05-08T20:04:54.488Z,57.01
2023-05-08T20:07:28.339Z,58.11
2023-05-08T20:09:57.620Z,59.06
2023-05-08T20:12:25.542Z,60.20
2023-05-08T20:14:53.541Z,65.00
2023-05-08T20:17:21.499Z,67.84
2023-05-08T20:19:49.450Z,62.27
2023-05-08T20:22:17.514Z,56.39
2023-05-08T20:24:45.497Z,54.86
2023-05-08T20:27:13.418Z,56.22
2023-05-08T20:29:41.289Z,58.04
2023-05-08T20:32:14.516Z,58.97
2023-05-08T20:34:44.246Z,59.99
2023-05-08T20:37:12.231Z,64.79
2023-05-08T20:39:40.107Z,67.24
2023-05-08T20:42:08.100Z,61.86
2023-05-08T20:44:36.022Z,56.32
2023-05-08T20:47:04.156Z,54.82
2023-05-08T20:49:32.087Z,56.14
2023-05-08T20:52:00.047Z,57.66
2023-05-08T20:54:29.549Z,59.03
2023-05-08T20:56:57.920Z,63.57
2023-05-08T20:59:25.771Z,66.02
2023-05-08T21:01:55.871Z,62.02
2023-05-08T21:04:23.891Z,56.42
2023-05-08T21:06:52.395Z,54.65
2023-05-08T21:09:20.492Z,56.02
2023-05-08T21:11:48.454Z,57.49
2023-05-08T21:14:16.489Z,59.07
2023-05-08T21:16:44.466Z,63.49
2023-05-08T21:19:17.327Z,65.90
2023-05-08T21:21:46.283Z,62.14
2023-05-08T21:24:14.270Z,57.37
2023-05-08T21:26:42.153Z,54.98
2023-05-08T21:29:11.017Z,56.43
2023-05-08T21:31:39.342Z,57.30
2023-05-08T21:34:07.609Z,58.73
2023-05-08T21:36:35.585Z,60.67
2023-05-08T21:39:04.183Z,65.51
2023-05-08T21:41:33.151Z,65.07
2023-05-08T21:44:01.163Z,62.74
2023-05-08T21:46:29.351Z,57.41
2023-05-08T21:48:57.314Z,55.37
2023-05-08T21:51:25.679Z,56.91
2023-05-08T21:53:53.601Z,57.28
2023-05-08T21:56:21.742Z,58.62
2023-05-08T21:58:50.127Z,59.82
2023-05-08T22:01:18.173Z,64.90
2023-05-08T22:03:46.291Z,67.03
2023-05-08T22:06:14.235Z,61.11
2023-05-08T22:08:42.173Z,55.66
2023-05-08T22:11:10.103Z,54.77
2023-05-08T22:13:38.065Z,56.28
2023-05-08T22:16:06.680Z,57.27
2023-05-08T22:18:34.657Z,58.60
2023-05-08T22:21:02.623Z,59.48
2023-05-08T22:23:30.584Z,63.78
2023-05-08T22:25:58.824Z,66.56
2023-05-08T22:28:27.191Z,60.65
2023-05-08T22:30:55.068Z,55.71
2023-05-08T22:33:22.992Z,54.77
2023-05-08T22:35:50.938Z,56.12
2023-05-08T22:38:18.877Z,58.03
2023-05-08T22:40:47.903Z,59.01
2023-05-08T22:43:15.877Z,59.65
2023-05-08T22:45:43.933Z,64.36
2023-05-08T22:48:12.062Z,65.78
2023-05-08T22:50:40.024Z,61.33
2023-05-08T22:53:08.425Z,56.61
2023-05-08T22:55:37.403Z,55.76
2023-05-08T22:58:05.329Z,56.57
2023-05-08T23:00:33.249Z,57.67
2023-05-08T23:03:01.225Z,58.77
2023-05-08T23:05:29.181Z,59.69
2023-05-08T23:07:57.074Z,64.80
2023-05-08T23:10:25.017Z,66.64
2023-05-08T23:12:52.967Z,62.66
2023-05-08T23:15:21.322Z,56.53
2023-05-08T23:17:49.516Z,54.82
2023-05-08T23:20:17.552Z,55.59
2023-05-08T23:22:45.505Z,57.08
2023-05-08T23:25:13.809Z,58.02
2023-05-08T23:27:41.950Z,59.27
2023-05-08T23:30:13.318Z,63.62
2023-05-08T23:32:41.637Z,65.79
2023-05-08T23:35:09.859Z,62.10
2023-05-08T23:37:37.922Z,57.55
2023-05-08T23:40:07.340Z,55.67
2023-05-08T23:42:37.330Z,56.78
2023-05-08T23:45:06.558Z,57.87
2023-05-08T23:47:34.496Z,59.48
2023-05-08T23:50:02.578Z,60.20
2023-05-08T23:52:30.461Z,65.26
2023-05-08T23:54:58.386Z,66.86
2023-05-08T23:57:26.258Z,63.19
2023-05-08T23:59:54.100Z,59.03
